sensor_id;sensor_type;location;lat;lon;timestamp;pressure;altitude;pressure_sealevel;temperature;humidity
70841;BME280;58465;51.534;9.934;2023-07-31T00:02:20;99497.34;;;21.79;54.35
70841;BME280;58465;51.534;9.934;2023-07-31T00:04:45;99493.88;;;21.77;54.64
70841;BME280;58465;51.534;9.934;2023-07-31T00:07:11;99490.41;;;21.75;54.39
70841;BME280;58465;51.534;9.934;2023-07-31T00:09:36;99480.41;;;21.75;54.50
70841;BME280;58465;51.534;9.934;2023-07-31T00:12:01;99486.94;;;21.73;54.85
70841;BME280;58465;51.534;9.934;2023-07-31T00:14:26;99476.53;;;21.67;55.40
70841;BME280;58465;51.534;9.934;2023-07-31T00:16:51;99474.59;;;21.69;54.74
70841;BME280;58465;51.534;9.934;2023-07-31T00:19:17;99476.31;;;21.70;54.81
70841;BME280;58465;51.534;9.934;2023-07-31T00:21:42;99467.53;;;21.66;55.03
70841;BME280;58465;51.534;9.934;2023-07-31T00:24:07;99468.50;;;21.65;55.16
70841;BME280;58465;51.534;9.934;2023-07-31T00:26:32;99463.94;;;21.66;55.16
70841;BME280;58465;51.534;9.934;2023-07-31T00:28:57;99462.19;;;21.65;55.08
70841;BME280;58465;51.534;9.934;2023-07-31T00:31:22;99465.91;;;21.64;55.21
70841;BME280;58465;51.534;9.934;2023-07-31T00:33:48;99456.00;;;21.63;55.44
70841;BME280;58465;51.534;9.934;2023-07-31T00:36:13;99451.44;;;21.63;55.34
70841;BME280;58465;51.534;9.934;2023-07-31T00:38:38;99447.03;;;21.62;55.47
70841;BME280;58465;51.534;9.934;2023-07-31T00:41:03;99449.00;;;21.60;55.33
70841;BME280;58465;51.534;9.934;2023-07-31T00:43:28;99440.94;;;21.59;55.34
70841;BME280;58465;51.534;9.934;2023-07-31T00:45:54;99444.53;;;21.59;55.48
70841;BME280;58465;51.534;9.934;2023-07-31T00:48:19;99434.66;;;21.58;55.29
70841;BME280;58465;51.534;9.934;2023-07-31T00:50:44;99430.09;;;21.59;55.56
70841;BME280;58465;51.534;9.934;2023-07-31T00:53:10;99434.75;;;21.57;55.65
70841;BME280;58465;51.534;9.934;2023-07-31T00:55:35;99435.63;;;21.57;55.35
70841;BME280;58465;51.534;9.934;2023-07-31T00:58:00;99425.84;;;21.55;55.68
70841;BME280;58465;51.534;9.934;2023-07-31T01:00:25;99417.72;;;21.55;55.75
70841;BME280;58465;51.534;9.934;2023-07-31T01:02:51;99420.41;;;21.55;55.56
70841;BME280;58465;51.534;9.934;2023-07-31T01:05:17;99410.53;;;21.54;55.67
70841;BME280;58465;51.534;9.934;2023-07-31T01:07:46;99408.69;;;21.54;55.87
70841;BME280;58465;51.534;9.934;2023-07-31T01:10:23;99412.28;;;21.55;55.45
70841;BME280;58465;51.534;9.934;2023-07-31T01:12:51;99403.13;;;21.56;55.73
70841;BME280;58465;51.534;9.934;2023-07-31T01:15:17;99403.50;;;21.51;55.64
70841;BME280;58465;51.534;9.934;2023-07-31T01:17:42;99395.97;;;21.55;55.52
70841;BME280;58465;51.534;9.934;2023-07-31T01:20:26;99400.91;;;21.50;55.60
70841;BME280;58465;51.534;9.934;2023-07-31T01:31:02;99379.94;;;21.52;55.63
70841;BME280;58465;51.534;9.934;2023-07-31T01:33:31;99386.34;;;21.51;55.57
70841;BME280;58465;51.534;9.934;2023-07-31T01:35:56;99366.47;;;21.50;55.79
70841;BME280;58465;51.534;9.934;2023-07-31T01:38:21;99379.06;;;21.51;55.91
70841;BME280;58465;51.534;9.934;2023-07-31T01:40:50;99375.34;;;21.52;55.83
70841;BME280;58465;51.534;9.934;2023-07-31T01:43:16;99351.25;;;21.47;55.69
70841;BME280;58465;51.534;9.934;2023-07-31T01:45:42;99360.75;;;21.53;55.50
70841;BME280;58465;51.534;9.934;2023-07-31T01:48:07;99342.97;;;21.49;55.82
70841;BME280;58465;51.534;9.934;2023-07-31T01:50:32;99348.41;;;21.49;55.92
70841;BME280;58465;51.534;9.934;2023-07-31T01:52:57;99350.28;;;21.48;55.80
70841;BME280;58465;51.534;9.934;2023-07-31T01:55:22;99347.44;;;21.50;55.78
70841;BME280;58465;51.534;9.934;2023-07-31T01:57:48;99345.69;;;21.49;55.89
70841;BME280;58465;51.534;9.934;2023-07-31T02:00:13;99342.88;;;21.51;55.68
70841;BME280;58465;51.534;9.934;2023-07-31T02:02:38;99334.84;;;21.49;55.66
70841;BME280;58465;51.534;9.934;2023-07-31T02:05:04;99338.53;;;21.48;55.60
70841;BME280;58465;51.534;9.934;2023-07-31T02:07:29;99337.66;;;21.47;55.93
70841;BME280;58465;51.534;9.934;2023-07-31T02:09:54;99335.81;;;21.48;55.92
70841;BME280;58465;51.534;9.934;2023-07-31T02:12:19;99336.69;;;21.48;55.65
70841;BME280;58465;51.534;9.934;2023-07-31T02:14:44;99333.09;;;21.48;55.57
70841;BME280;58465;51.534;9.934;2023-07-31T02:17:10;99325.19;;;21.45;55.89
70841;BME280;58465;51.534;9.934;2023-07-31T02:19:35;99325.06;;;21.46;55.87
70841;BME280;58465;51.534;9.934;2023-07-31T02:22:00;99322.22;;;21.48;55.66
70841;BME280;58465;51.534;9.934;2023-07-31T02:24:25;99332.34;;;21.46;55.89
70841;BME280;58465;51.534;9.934;2023-07-31T02:26:50;99323.22;;;21.47;55.75
70841;BME280;58465;51.534;9.934;2023-07-31T02:29:15;99320.50;;;21.47;55.60
70841;BME280;58465;51.534;9.934;2023-07-31T02:31:41;99328.53;;;21.48;55.77
70841;BME280;58465;51.534;9.934;2023-07-31T02:34:06;99324.94;;;21.48;55.65
70841;BME280;58465;51.534;9.934;2023-07-31T02:36:31;99322.13;;;21.50;55.75
70841;BME280;58465;51.534;9.934;2023-07-31T02:38:56;99310.38;;;21.49;55.53
70841;BME280;58465;51.534;9.934;2023-07-31T02:41:21;99318.66;;;21.47;55.67
70841;BME280;58465;51.534;9.934;2023-07-31T02:43:46;99317.56;;;21.50;55.43
70841;BME280;58465;51.534;9.934;2023-07-31T02:46:12;99321.38;;;21.47;55.50
70841;BME280;58465;51.534;9.934;2023-07-31T02:48:37;99321.47;;;21.46;55.89
70841;BME280;58465;51.534;9.934;2023-07-31T02:51:02;99313.44;;;21.44;55.75
70841;BME280;58465;51.534;9.934;2023-07-31T02:53:27;99315.28;;;21.44;55.65
70841;BME280;58465;51.534;9.934;2023-07-31T02:55:52;99320.63;;;21.45;55.78
70841;BME280;58465;51.534;9.934;2023-07-31T02:58:18;99320.63;;;21.45;55.83
70841;BME280;58465;51.534;9.934;2023-07-31T03:00:43;99323.44;;;21.44;55.89
70841;BME280;58465;51.534;9.934;2023-07-31T03:03:09;99314.19;;;21.46;55.79
70841;BME280;58465;51.534;9.934;2023-07-31T03:05:34;99309.75;;;21.45;55.94
70841;BME280;58465;51.534;9.934;2023-07-31T03:07:59;99309.63;;;21.47;55.81
70841;BME280;58465;51.534;9.934;2023-07-31T03:10:24;99306.28;;;21.43;56.00
70841;BME280;58465;51.534;9.934;2023-07-31T03:12:49;99310.00;;;21.42;56.08
70841;BME280;58465;51.534;9.934;2023-07-31T03:15:14;99316.31;;;21.43;55.86
70841;BME280;58465;51.534;9.934;2023-07-31T03:17:40;99295.56;;;21.42;56.02
70841;BME280;58465;51.534;9.934;2023-07-31T03:20:07;99310.72;;;21.44;56.05
70841;BME280;58465;51.534;9.934;2023-07-31T03:22:33;99304.56;;;21.42;56.14
70841;BME280;58465;51.534;9.934;2023-07-31T03:25:00;99312.59;;;21.44;56.08
70841;BME280;58465;51.534;9.934;2023-07-31T03:27:25;99305.28;;;21.44;55.98
70841;BME280;58465;51.534;9.934;2023-07-31T03:29:50;99309.88;;;21.44;55.94
70841;BME280;58465;51.534;9.934;2023-07-31T03:32:16;99308.00;;;21.44;56.13
70841;BME280;58465;51.534;9.934;2023-07-31T03:34:41;99310.00;;;21.42;56.25
70841;BME280;58465;51.534;9.934;2023-07-31T03:37:06;99306.44;;;21.42;56.27
70841;BME280;58465;51.534;9.934;2023-07-31T03:39:34;99311.72;;;21.43;56.06
70841;BME280;58465;51.534;9.934;2023-07-31T03:41:59;99310.00;;;21.42;56.30
70841;BME280;58465;51.534;9.934;2023-07-31T03:44:24;99313.72;;;21.41;56.29
70841;BME280;58465;51.534;9.934;2023-07-31T03:46:49;99313.44;;;21.44;56.28
70841;BME280;58465;51.534;9.934;2023-07-31T03:49:14;99313.59;;;21.43;56.22
70841;BME280;58465;51.534;9.934;2023-07-31T03:51:39;99310.88;;;21.43;56.38
70841;BME280;58465;51.534;9.934;2023-07-31T03:54:05;99311.88;;;21.42;56.55
70841;BME280;58465;51.534;9.934;2023-07-31T03:56:30;99311.00;;;21.41;56.29
70841;BME280;58465;51.534;9.934;2023-07-31T03:58:55;99312.72;;;21.42;56.46
70841;BME280;58465;51.534;9.934;2023-07-31T04:01:20;99316.31;;;21.43;56.31
70841;BME280;58465;51.534;9.934;2023-07-31T04:03:45;99315.28;;;21.44;56.05
70841;BME280;58465;51.534;9.934;2023-07-31T04:06:11;99309.00;;;21.43;56.30
70841;BME280;58465;51.534;9.934;2023-07-31T04:08:36;99320.63;;;21.45;56.48
70841;BME280;58465;51.534;9.934;2023-07-31T04:11:01;99313.44;;;21.44;56.19
70841;BME280;58465;51.534;9.934;2023-07-31T04:13:26;99317.91;;;21.45;56.18
70841;BME280;58465;51.534;9.934;2023-07-31T04:15:53;99317.91;;;21.45;56.41
70841;BME280;58465;51.534;9.934;2023-07-31T04:18:19;99314.56;;;21.42;56.31
70841;BME280;58465;51.534;9.934;2023-07-31T04:20:44;99316.31;;;21.43;56.38
70841;BME280;58465;51.534;9.934;2023-07-31T04:23:09;99310.88;;;21.43;56.48
70841;BME280;58465;51.534;9.934;2023-07-31T04:25:34;99317.16;;;21.43;56.49
70841;BME280;58465;51.534;9.934;2023-07-31T04:28:00;99328.00;;;21.43;56.52
70841;BME280;58465;51.534;9.934;2023-07-31T04:30:25;99325.44;;;21.42;56.69
70841;BME280;58465;51.534;9.934;2023-07-31T04:32:50;99321.09;;;21.39;56.55
70841;BME280;58465;51.534;9.934;2023-07-31T04:35:15;99313.72;;;21.41;56.50
70841;BME280;58465;51.534;9.934;2023-07-31T04:37:41;99311.88;;;21.42;56.33
70841;BME280;58465;51.534;9.934;2023-07-31T04:40:06;99314.44;;;21.43;56.24
70841;BME280;58465;51.534;9.934;2023-07-31T04:42:32;99312.59;;;21.44;56.56
70841;BME280;58465;51.534;9.934;2023-07-31T04:44:57;99312.72;;;21.42;56.58
70841;BME280;58465;51.534;9.934;2023-07-31T04:47:22;99317.28;;;21.42;56.54
70841;BME280;58465;51.534;9.934;2023-07-31T04:49:47;99309.88;;;21.44;56.58
70841;BME280;58465;51.534;9.934;2023-07-31T04:52:12;99320.00;;;21.42;56.54
70841;BME280;58465;51.534;9.934;2023-07-31T04:54:38;99319.88;;;21.43;56.51
70841;BME280;58465;51.534;9.934;2023-07-31T04:57:03;99328.88;;;21.44;56.68
70841;BME280;58465;51.534;9.934;2023-07-31T04:59:28;99324.19;;;21.46;56.52
70841;BME280;58465;51.534;9.934;2023-07-31T05:01:53;99320.28;;;21.50;56.38
70841;BME280;58465;51.534;9.934;2023-07-31T05:04:18;99331.88;;;21.52;56.12
70841;BME280;58465;51.534;9.934;2023-07-31T05:06:43;99327.81;;;21.58;56.26
70841;BME280;58465;51.534;9.934;2023-07-31T05:09:09;99328.78;;;21.57;56.07
70841;BME280;58465;51.534;9.934;2023-07-31T05:11:34;99323.47;;;21.55;56.17
70841;BME280;58465;51.534;9.934;2023-07-31T05:13:59;99326.72;;;21.60;55.86
70841;BME280;58465;51.534;9.934;2023-07-31T05:16:25;99327.94;;;21.56;56.15
70841;BME280;58465;51.534;9.934;2023-07-31T05:18:50;99325.09;;;21.58;55.87
70841;BME280;58465;51.534;9.934;2023-07-31T05:21:15;99327.16;;;21.54;56.22
70841;BME280;58465;51.534;9.934;2023-07-31T05:23:40;99330.63;;;21.56;56.19
70841;BME280;58465;51.534;9.934;2023-07-31T05:26:06;99323.25;;;21.58;56.10
70841;BME280;58465;51.534;9.934;2023-07-31T05:28:31;99335.22;;;21.56;56.25
70841;BME280;58465;51.534;9.934;2023-07-31T05:31:00;99337.06;;;21.55;55.95
70841;BME280;58465;51.534;9.934;2023-07-31T05:33:25;99333.75;;;21.52;56.04
70841;BME280;58465;51.534;9.934;2023-07-31T05:35:50;99335.22;;;21.56;55.76
70841;BME280;58465;51.534;9.934;2023-07-31T05:38:15;99333.25;;;21.58;55.76
70841;BME280;58465;51.534;9.934;2023-07-31T05:40:42;99332.25;;;21.59;56.03
70841;BME280;58465;51.534;9.934;2023-07-31T05:43:07;99338.69;;;21.58;56.04
70841;BME280;58465;51.534;9.934;2023-07-31T05:45:33;99330.41;;;21.59;56.06
70841;BME280;58465;51.534;9.934;2023-07-31T05:47:58;99333.72;;;21.63;56.01
70841;BME280;58465;51.534;9.934;2023-07-31T05:50:23;99325.22;;;21.67;55.70
70841;BME280;58465;51.534;9.934;2023-07-31T05:52:48;99330.31;;;21.72;55.66
70841;BME280;58465;51.534;9.934;2023-07-31T05:55:14;99324.59;;;21.75;55.34
70841;BME280;58465;51.534;9.934;2023-07-31T05:57:39;99320.91;;;21.76;55.43
70841;BME280;58465;51.534;9.934;2023-07-31T06:00:04;99327.09;;;21.78;55.25
70841;BME280;58465;51.534;9.934;2023-07-31T06:02:30;99328.94;;;21.77;55.16
70841;BME280;58465;51.534;9.934;2023-07-31T06:04:58;99326.22;;;21.77;55.20
70841;BME280;58465;51.534;9.934;2023-07-31T06:07:23;99323.16;;;21.71;55.32
70841;BME280;58465;51.534;9.934;2023-07-31T06:09:48;99324.13;;;21.70;55.63
70841;BME280;58465;51.534;9.934;2023-07-31T06:12:14;99321.41;;;21.70;55.45
70841;BME280;58465;51.534;9.934;2023-07-31T06:14:42;99321.13;;;21.73;55.36
70841;BME280;58465;51.534;9.934;2023-07-31T06:17:08;99313.38;;;21.79;55.19
70841;BME280;58465;51.534;9.934;2023-07-31T06:19:33;99318.56;;;21.82;55.09
70841;BME280;58465;51.534;9.934;2023-07-31T06:21:58;99320.41;;;21.93;54.85
70841;BME280;58465;51.534;9.934;2023-07-31T06:24:23;99317.44;;;21.96;54.58
70841;BME280;58465;51.534;9.934;2023-07-31T06:26:48;99321.16;;;21.95;54.68
70841;BME280;58465;51.534;9.934;2023-07-31T06:29:15;99317.97;;;21.90;55.05
70841;BME280;58465;51.534;9.934;2023-07-31T06:31:41;99322.66;;;21.88;54.94
70841;BME280;58465;51.534;9.934;2023-07-31T06:34:06;99320.06;;;21.87;55.17
70841;BME280;58465;51.534;9.934;2023-07-31T06:36:31;99327.34;;;21.86;54.74
70841;BME280;58465;51.534;9.934;2023-07-31T06:38:58;99324.00;;;21.82;54.89
70841;BME280;58465;51.534;9.934;2023-07-31T06:41:23;99321.16;;;21.84;54.68
70841;BME280;58465;51.534;9.934;2023-07-31T06:43:48;99318.94;;;21.89;54.87
70841;BME280;58465;51.534;9.934;2023-07-31T06:46:13;99311.78;;;21.88;54.68
70841;BME280;58465;51.534;9.934;2023-07-31T06:48:39;99307.94;;;21.91;54.77
70841;BME280;58465;51.534;9.934;2023-07-31T06:51:04;99316.97;;;21.91;54.68
70841;BME280;58465;51.534;9.934;2023-07-31T06:53:29;99313.25;;;21.92;54.97
70841;BME280;58465;51.534;9.934;2023-07-31T06:55:54;99318.97;;;22.00;54.71
70841;BME280;58465;51.534;9.934;2023-07-31T06:58:20;99319.09;;;21.99;54.52
70841;BME280;58465;51.534;9.934;2023-07-31T07:00:45;99314.53;;;21.99;54.84
70841;BME280;58465;51.534;9.934;2023-07-31T07:03:10;99307.25;;;22.00;54.68
70841;BME280;58465;51.534;9.934;2023-07-31T07:05:36;99310.81;;;22.00;54.73
70841;BME280;58465;51.534;9.934;2023-07-31T07:08:02;99314.41;;;22.01;54.81
70841;BME280;58465;51.534;9.934;2023-07-31T07:10:27;99302.66;;;22.00;54.35
70841;BME280;58465;51.534;9.934;2023-07-31T07:12:52;99309.69;;;22.03;54.65
70841;BME280;58465;51.534;9.934;2023-07-31T07:15:17;99305.13;;;22.03;54.67
70841;BME280;58465;51.534;9.934;2023-07-31T07:17:43;99307.59;;;22.06;54.56
70841;BME280;58465;51.534;9.934;2023-07-31T07:20:08;99305.97;;;22.15;54.20
70841;BME280;58465;51.534;9.934;2023-07-31T07:22:33;99315.47;;;22.20;54.41
70841;BME280;58465;51.534;9.934;2023-07-31T07:24:58;99317.72;;;22.15;54.66
70841;BME280;58465;51.534;9.934;2023-07-31T07:27:24;99317.72;;;22.15;54.68
70841;BME280;58465;51.534;9.934;2023-07-31T07:29:52;99324.03;;;22.16;54.47
70841;BME280;58465;51.534;9.934;2023-07-31T07:32:17;99316.97;;;22.13;54.70
70841;BME280;58465;51.534;9.934;2023-07-31T07:34:44;99324.16;;;22.14;54.74
70841;BME280;58465;51.534;9.934;2023-07-31T07:37:09;99320.44;;;22.15;54.70
70841;BME280;58465;51.534;9.934;2023-07-31T07:39:35;99316.34;;;22.21;55.09
70841;BME280;58465;51.534;9.934;2023-07-31T07:42:00;99313.25;;;22.26;54.84
70841;BME280;58465;51.534;9.934;2023-07-31T07:44:25;99306.22;;;22.23;54.83
70841;BME280;58465;51.534;9.934;2023-07-31T07:46:51;99317.22;;;22.21;54.96
70841;BME280;58465;51.534;9.934;2023-07-31T07:49:16;99319.94;;;22.21;54.85
70841;BME280;58465;51.534;9.934;2023-07-31T07:51:42;99322.69;;;22.10;55.67
70841;BME280;58465;51.534;9.934;2023-07-31T07:54:07;99315.63;;;22.08;55.25
70841;BME280;58465;51.534;9.934;2023-07-31T07:56:32;99318.72;;;22.14;55.44
70841;BME280;58465;51.534;9.934;2023-07-31T07:58:58;99311.63;;;22.34;55.77
70841;BME280;58465;51.534;9.934;2023-07-31T08:01:23;99306.03;;;22.58;54.99
70841;BME280;58465;51.534;9.934;2023-07-31T08:03:49;99304.03;;;22.60;55.09
70841;BME280;58465;51.534;9.934;2023-07-31T08:06:15;99295.84;;;22.60;55.96
70841;BME280;58465;51.534;9.934;2023-07-31T08:08:40;99298.56;;;22.60;55.56
70841;BME280;58465;51.534;9.934;2023-07-31T08:11:05;99298.09;;;22.66;56.89
70841;BME280;58465;51.534;9.934;2023-07-31T08:13:30;99299.78;;;22.78;56.53
70841;BME280;58465;51.534;9.934;2023-07-31T08:15:56;99294.16;;;22.91;55.79
70841;BME280;58465;51.534;9.934;2023-07-31T08:18:21;99283.03;;;22.94;55.84
70841;BME280;58465;51.534;9.934;2023-07-31T08:20:46;99286.78;;;22.71;56.50
70841;BME280;58465;51.534;9.934;2023-07-31T08:23:12;99283.84;;;22.63;56.74
70841;BME280;58465;51.534;9.934;2023-07-31T08:25:38;99289.16;;;22.75;56.54
70841;BME280;58465;51.534;9.934;2023-07-31T08:28:03;99282.53;;;22.89;56.14
70841;BME280;58465;51.534;9.934;2023-07-31T08:30:29;99279.81;;;22.89;56.14
70841;BME280;58465;51.534;9.934;2023-07-31T08:32:55;99277.88;;;22.80;56.49
70841;BME280;58465;51.534;9.934;2023-07-31T08:35:20;99277.50;;;22.73;56.48
70841;BME280;58465;51.534;9.934;2023-07-31T08:37:45;99271.19;;;22.73;56.67
70841;BME280;58465;51.534;9.934;2023-07-31T08:40:10;99271.44;;;22.70;56.43
70841;BME280;58465;51.534;9.934;2023-07-31T08:42:43;99275.44;;;22.66;56.67
70841;BME280;58465;51.534;9.934;2023-07-31T08:45:08;99268.19;;;22.55;57.03
70841;BME280;58465;51.534;9.934;2023-07-31T08:47:34;99265.25;;;22.47;57.42
70841;BME280;58465;51.534;9.934;2023-07-31T08:49:59;99266.22;;;22.46;57.10
70841;BME280;58465;51.534;9.934;2023-07-31T08:52:25;99268.72;;;22.49;56.91
70841;BME280;58465;51.534;9.934;2023-07-31T08:54:50;99271.66;;;22.46;57.03
70841;BME280;58465;51.534;9.934;2023-07-31T08:57:15;99271.06;;;22.42;57.29
70841;BME280;58465;51.534;9.934;2023-07-31T08:59:41;99264.84;;;22.51;56.75
70841;BME280;58465;51.534;9.934;2023-07-31T09:02:08;99268.13;;;22.66;56.72
70841;BME280;58465;51.534;9.934;2023-07-31T09:04:33;99272.31;;;22.81;55.90
70841;BME280;58465;51.534;9.934;2023-07-31T09:07:02;99259.38;;;22.94;55.68
70841;BME280;58465;51.534;9.934;2023-07-31T09:09:29;99258.78;;;22.91;55.57
70841;BME280;58465;51.534;9.934;2023-07-31T09:11:55;99258.78;;;22.91;55.42
70841;BME280;58465;51.534;9.934;2023-07-31T09:14:20;99245.63;;;22.96;55.43
70841;BME280;58465;51.534;9.934;2023-07-31T09:16:55;99252.88;;;23.07;55.21
70841;BME280;58465;51.534;9.934;2023-07-31T09:19:54;99256.31;;;23.09;55.32
70841;BME280;58465;51.534;9.934;2023-07-31T09:22:12;99248.22;;;22.98;55.19
70841;BME280;58465;51.534;9.934;2023-07-31T09:24:38;99247.50;;;22.96;55.41
70841;BME280;58465;51.534;9.934;2023-07-31T09:27:03;99254.13;;;22.82;55.70
70841;BME280;58465;51.534;9.934;2023-07-31T09:29:29;99250.66;;;22.80;56.16
70841;BME280;58465;51.534;9.934;2023-07-31T09:31:54;99252.75;;;22.87;55.79
70841;BME280;58465;51.534;9.934;2023-07-31T09:34:20;99245.72;;;23.06;55.15
70841;BME280;58465;51.534;9.934;2023-07-31T09:36:46;99239.53;;;23.04;55.33
70841;BME280;58465;51.534;9.934;2023-07-31T09:39:12;99240.25;;;23.06;55.30
70841;BME280;58465;51.534;9.934;2023-07-31T09:41:38;99237.53;;;23.06;55.06
70841;BME280;58465;51.534;9.934;2023-07-31T09:44:03;99236.94;;;23.02;54.92
70841;BME280;58465;51.534;9.934;2023-07-31T09:46:29;99230.25;;;23.06;54.63
70841;BME280;58465;51.534;9.934;2023-07-31T09:49:03;99226.78;;;23.04;54.77
70841;BME280;58465;51.534;9.934;2023-07-31T09:51:28;99229.63;;;23.03;54.79
70841;BME280;58465;51.534;9.934;2023-07-31T09:53:56;99224.19;;;23.03;54.53
70841;BME280;58465;51.534;9.934;2023-07-31T09:56:21;99224.78;;;23.06;55.08
70841;BME280;58465;51.534;9.934;2023-07-31T09:58:46;99227.44;;;22.97;56.23
70841;BME280;58465;51.534;9.934;2023-07-31T10:01:12;99219.53;;;22.93;56.92
70841;BME280;58465;51.534;9.934;2023-07-31T10:03:38;99218.00;;;23.01;56.97
70841;BME280;58465;51.534;9.934;2023-07-31T10:06:04;99207.03;;;23.12;57.57
70841;BME280;58465;51.534;9.934;2023-07-31T10:08:31;99224.19;;;23.03;57.56
70841;BME280;58465;51.534;9.934;2023-07-31T10:11:00;99217.13;;;23.00;56.99
70841;BME280;58465;51.534;9.934;2023-07-31T10:13:25;99214.03;;;23.05;57.30
70841;BME280;58465;51.534;9.934;2023-07-31T10:15:52;99217.25;;;23.19;56.61
70841;BME280;58465;51.534;9.934;2023-07-31T10:18:18;99209.75;;;23.33;55.93
70841;BME280;58465;51.534;9.934;2023-07-31T10:20:43;99209.19;;;23.39;55.93
70841;BME280;58465;51.534;9.934;2023-07-31T10:23:09;99207.28;;;23.50;55.47
70841;BME280;58465;51.534;9.934;2023-07-31T10:25:35;99219.34;;;23.57;55.06
70841;BME280;58465;51.534;9.934;2023-07-31T10:28:01;99207.19;;;23.61;54.95
70841;BME280;58465;51.534;9.934;2023-07-31T10:30:27;99206.31;;;23.61;55.00
70841;BME280;58465;51.534;9.934;2023-07-31T10:32:54;99203.59;;;23.61;54.43
70841;BME280;58465;51.534;9.934;2023-07-31T10:35:20;99196.16;;;23.63;54.52
70841;BME280;58465;51.534;9.934;2023-07-31T10:37:47;99201.25;;;23.56;54.81
70841;BME280;58465;51.534;9.934;2023-07-31T10:40:13;99191.03;;;23.49;55.11
70841;BME280;58465;51.534;9.934;2023-07-31T10:42:50;99186.94;;;23.54;54.53
70841;BME280;58465;51.534;9.934;2023-07-31T10:45:50;99183.06;;;23.57;54.54
70841;BME280;58465;51.534;9.934;2023-07-31T10:48:15;99187.25;;;23.61;54.16
70841;BME280;58465;51.534;9.934;2023-07-31T10:50:47;99185.69;;;23.68;54.50
70841;BME280;58465;51.534;9.934;2023-07-31T10:53:23;99186.53;;;23.68;53.98
70841;BME280;58465;51.534;9.934;2023-07-31T10:55:49;99186.97;;;23.64;54.04
70841;BME280;58465;51.534;9.934;2023-07-31T10:58:16;99185.66;;;23.58;54.34
70841;BME280;58465;51.534;9.934;2023-07-31T11:00:43;99178.59;;;23.56;54.69
70841;BME280;58465;51.534;9.934;2023-07-31T11:03:18;99170.72;;;23.53;54.97
70841;BME280;58465;51.534;9.934;2023-07-31T11:08:11;99173.06;;;23.46;54.69
70841;BME280;58465;51.534;9.934;2023-07-31T11:10:37;99164.72;;;23.59;54.34
70841;BME280;58465;51.534;9.934;2023-07-31T11:13:03;99170.59;;;23.54;54.38
70841;BME280;58465;51.534;9.934;2023-07-31T11:15:29;99156.97;;;23.34;54.91
70841;BME280;58465;51.534;9.934;2023-07-31T11:17:55;99157.50;;;23.27;55.00
70841;BME280;58465;51.534;9.934;2023-07-31T11:20:22;99156.81;;;23.25;55.42
70841;BME280;58465;51.534;9.934;2023-07-31T11:22:48;99155.94;;;23.25;54.92
70841;BME280;58465;51.534;9.934;2023-07-31T11:25:14;99159.97;;;23.30;54.87
70841;BME280;58465;51.534;9.934;2023-07-31T11:27:39;99162.47;;;23.43;54.72
70841;BME280;58465;51.534;9.934;2023-07-31T11:30:08;99155.00;;;23.45;54.68
70841;BME280;58465;51.534;9.934;2023-07-31T11:32:35;99148.66;;;23.65;54.03
70841;BME280;58465;51.534;9.934;2023-07-31T11:35:00;99144.69;;;23.79;53.61
70841;BME280;58465;51.534;9.934;2023-07-31T11:37:38;99150.88;;;23.81;53.35
70841;BME280;58465;51.534;9.934;2023-07-31T11:40:03;99150.53;;;23.75;53.56
70841;BME280;58465;51.534;9.934;2023-07-31T11:42:28;99148.47;;;23.57;54.00
70841;BME280;58465;51.534;9.934;2023-07-31T11:44:54;99148.09;;;23.62;53.94
70841;BME280;58465;51.534;9.934;2023-07-31T11:47:19;99139.78;;;23.63;53.82
70841;BME280;58465;51.534;9.934;2023-07-31T11:49:45;99147.56;;;23.47;54.35
70841;BME280;58465;51.534;9.934;2023-07-31T11:52:10;99134.00;;;23.57;53.82
70841;BME280;58465;51.534;9.934;2023-07-31T11:54:37;99141.97;;;23.49;54.03
70841;BME280;58465;51.534;9.934;2023-07-31T11:57:03;99134.06;;;23.46;54.11
70841;BME280;58465;51.534;9.934;2023-07-31T11:59:29;99135.88;;;23.26;54.58
70841;BME280;58465;51.534;9.934;2023-07-31T12:01:55;99134.63;;;23.40;54.08
70841;BME280;58465;51.534;9.934;2023-07-31T12:04:20;99131.75;;;23.41;54.03
70841;BME280;58465;51.534;9.934;2023-07-31T12:06:47;99132.34;;;23.45;53.85
70841;BME280;58465;51.534;9.934;2023-07-31T12:09:13;99129.53;;;23.56;53.34
70841;BME280;58465;51.534;9.934;2023-07-31T12:11:42;99136.63;;;23.38;54.15
70841;BME280;58465;51.534;9.934;2023-07-31T12:14:11;99123.28;;;23.35;54.04
70841;BME280;58465;51.534;9.934;2023-07-31T12:16:44;99135.72;;;23.27;54.37
70841;BME280;58465;51.534;9.934;2023-07-31T12:19:09;99131.13;;;23.28;54.13
70841;BME280;58465;51.534;9.934;2023-07-31T12:21:34;99129.94;;;23.21;54.40
70841;BME280;58465;51.534;9.934;2023-07-31T12:23:59;99128.69;;;23.25;54.51
70841;BME280;58465;51.534;9.934;2023-07-31T12:26:25;99142.75;;;23.30;54.22
70841;BME280;58465;51.534;9.934;2023-07-31T12:28:58;99134.28;;;23.54;53.79
70841;BME280;58465;51.534;9.934;2023-07-31T12:31:24;99140.78;;;23.62;53.25
70841;BME280;58465;51.534;9.934;2023-07-31T12:33:52;99138.22;;;23.71;53.12
70841;BME280;58465;51.534;9.934;2023-07-31T12:36:18;99145.22;;;23.63;53.17
70841;BME280;58465;51.534;9.934;2023-07-31T12:38:44;99147.63;;;23.57;53.47
70841;BME280;58465;51.534;9.934;2023-07-31T12:41:10;99159.13;;;23.40;53.87
70841;BME280;58465;51.534;9.934;2023-07-31T12:43:36;99149.81;;;23.33;54.29
70841;BME280;58465;51.534;9.934;2023-07-31T12:46:01;99145.75;;;23.27;54.74
70841;BME280;58465;51.534;9.934;2023-07-31T12:48:27;99140.59;;;23.24;54.77
70841;BME280;58465;51.534;9.934;2023-07-31T12:50:52;99132.06;;;23.17;55.72
70841;BME280;58465;51.534;9.934;2023-07-31T12:53:17;99131.06;;;23.18;55.58
70841;BME280;58465;51.534;9.934;2023-07-31T12:55:42;99119.06;;;23.21;55.79
70841;BME280;58465;51.534;9.934;2023-07-31T12:58:07;99117.25;;;23.31;55.35
70841;BME280;58465;51.534;9.934;2023-07-31T13:00:32;99115.81;;;23.37;55.54
70841;BME280;58465;51.534;9.934;2023-07-31T13:02:58;99123.59;;;23.41;55.52
70841;BME280;58465;51.534;9.934;2023-07-31T13:05:23;99124.59;;;23.40;55.41